sensor_id;sensor_type;location;lat;lon;timestamp;pressure;altitude;pressure_sealevel;temperature;humidity
43553;BME280;29153;42.696;23.218;2023-05-16T00:02:08;94185.27;;;11.39;100.00
43553;BME280;29153;42.696;23.218;2023-05-16T00:04:36;94191.64;;;11.38;100.00
43553;BME280;29153;42.696;23.218;2023-05-16T00:07:03;94186.85;;;11.40;100.00
43553;BME280;29153;42.696;23.218;2023-05-16T00:09:31;94181.88;;;11.36;100.00
43553;BME280;29153;42.696;23.218;2023-05-16T00:11:59;94180.27;;;11.38;100.00
43553;BME280;29153;42.696;23.218;2023-05-16T00:14:26;94176.20;;;11.43;100.00
43553;BME280;29153;42.696;23.218;2023-05-16T00:16:54;94175.77;;;11.36;100.00
43553;BME280;29153;42.696;23.218;2023-05-16T00:19:26;94170.47;;;11.36;100.00
43553;BME280;29153;42.696;23.218;2023-05-16T00:21:55;94174.70;;;11.37;100.00
43553;BME280;29153;42.696;23.218;2023-05-16T00:24:22;94172.61;;;11.34;100.00
43553;BME280;29153;42.696;23.218;2023-05-16T00:26:50;94174.77;;;11.32;100.00
43553;BME280;29153;42.696;23.218;2023-05-16T00:29:18;94162.00;;;11.34;100.00
43553;BME280;29153;42.696;23.218;2023-05-16T00:31:45;94160.44;;;11.33;100.00
43553;BME280;29153;42.696;23.218;2023-05-16T00:34:13;94159.92;;;11.31;100.00
43553;BME280;29153;42.696;23.218;2023-05-16T00:36:41;94150.64;;;11.31;100.00
43553;BME280;29153;42.696;23.218;2023-05-16T00:39:08;94152.48;;;11.33;100.00
43553;BME280;29153;42.696;23.218;2023-05-16T00:41:37;94145.60;;;11.32;100.00
43553;BME280;29153;42.696;23.218;2023-05-16T00:44:04;94147.46;;;11.31;100.00
43553;BME280;29153;42.696;23.218;2023-05-16T00:46:32;94147.19;;;11.33;100.00
43553;BME280;29153;42.696;23.218;2023-05-16T00:49:00;94143.44;;;11.34;100.00
43553;BME280;29153;42.696;23.218;2023-05-16T00:51:27;94131.81;;;11.32;100.00
43553;BME280;29153;42.696;23.218;2023-05-16T00:53:56;94137.91;;;11.33;100.00
43553;BME280;29153;42.696;23.218;2023-05-16T00:56:24;94144.28;;;11.32;100.00
43553;BME280;29153;42.696;23.218;2023-05-16T00:58:52;94146.13;;;11.31;100.00
43553;BME280;29153;42.696;23.218;2023-05-16T01:01:22;94135.00;;;11.32;100.00
43553;BME280;29153;42.696;23.218;2023-05-16T01:03:50;94130.17;;;11.34;100.00
43553;BME280;29153;42.696;23.218;2023-05-16T01:06:18;94135.06;;;11.27;100.00
43553;BME280;29153;42.696;23.218;2023-05-16T01:08:46;94126.04;;;11.28;100.00
43553;BME280;29153;42.696;23.218;2023-05-16T01:11:34;94129.44;;;11.31;100.00
43553;BME280;29153;42.696;23.218;2023-05-16T01:17:04;94136.27;;;11.34;100.00
43553;BME280;29153;42.696;23.218;2023-05-16T01:25:17;94118.15;;;11.23;100.00
43553;BME280;29153;42.696;23.218;2023-05-16T01:27:40;94114.69;;;11.25;100.00
43553;BME280;29153;42.696;23.218;2023-05-16T01:30:16;94122.66;;;11.22;100.00
43553;BME280;29153;42.696;23.218;2023-05-16T01:32:44;94120.01;;;11.22;100.00
43553;BME280;29153;42.696;23.218;2023-05-16T01:35:12;94114.91;;;11.28;100.00
43553;BME280;29153;42.696;23.218;2023-05-16T01:38:03;94115.76;;;11.24;100.00
43553;BME280;29153;42.696;23.218;2023-05-16T01:40:51;94101.11;;;11.29;100.00
43553;BME280;29153;42.696;23.218;2023-05-16T01:43:19;94091.36;;;11.24;100.00
43553;BME280;29153;42.696;23.218;2023-05-16T01:45:52;94099.78;;;11.29;100.00
43553;BME280;29153;42.696;23.218;2023-05-16T01:48:26;94089.52;;;11.22;100.00
43553;BME280;29153;42.696;23.218;2023-05-16T01:50:55;94091.64;;;11.23;100.00
43553;BME280;29153;42.696;23.218;2023-05-16T01:53:28;94087.85;;;11.29;100.00
43553;BME280;29153;42.696;23.218;2023-05-16T01:55:59;94095.48;;;11.33;100.00
43553;BME280;29153;42.696;23.218;2023-05-16T01:58:32;94082.03;;;11.27;100.00
43553;BME280;29153;42.696;23.218;2023-05-16T02:01:02;94082.03;;;11.27;100.00
43553;BME280;29153;42.696;23.218;2023-05-16T02:03:30;94081.76;;;11.28;100.00
43553;BME280;29153;42.696;23.218;2023-05-16T02:05:58;94076.47;;;11.26;100.00
43553;BME280;29153;42.696;23.218;2023-05-16T02:08:27;94082.10;;;11.22;100.00
43553;BME280;29153;42.696;23.218;2023-05-16T02:10:55;94085.85;;;11.21;100.00
43553;BME280;29153;42.696;23.218;2023-05-16T02:13:23;94084.48;;;11.23;100.00
43553;BME280;29153;42.696;23.218;2023-05-16T02:15:50;94079.70;;;11.23;100.00
43553;BME280;29153;42.696;23.218;2023-05-16T02:18:18;94074.48;;;11.18;100.00
43553;BME280;29153;42.696;23.218;2023-05-16T02:20:46;94073.92;;;11.21;100.00
43553;BME280;29153;42.696;23.218;2023-05-16T02:23:13;94080.78;;;11.22;100.00
43553;BME280;29153;42.696;23.218;2023-05-16T02:25:41;94078.11;;;11.24;100.00
43553;BME280;29153;42.696;23.218;2023-05-16T02:28:08;94079.38;;;11.27;100.00
43553;BME280;29153;42.696;23.218;2023-05-16T02:30:36;94080.70;;;11.27;100.00
43553;BME280;29153;42.696;23.218;2023-05-16T02:33:04;94072.82;;;11.22;100.00
43553;BME280;29153;42.696;23.218;2023-05-16T02:35:31;94085.27;;;11.24;100.00
43553;BME280;29153;42.696;23.218;2023-05-16T02:37:59;94085.27;;;11.24;100.00
43553;BME280;29153;42.696;23.218;2023-05-16T02:40:27;94077.33;;;11.21;100.00
43553;BME280;29153;42.696;23.218;2023-05-16T02:42:55;94077.05;;;11.23;100.00
43553;BME280;29153;42.696;23.218;2023-05-16T02:45:23;94079.22;;;11.21;100.00
43553;BME280;29153;42.696;23.218;2023-05-16T02:47:50;94072.55;;;11.23;100.00
43553;BME280;29153;42.696;23.218;2023-05-16T02:50:18;94074.41;;;11.23;100.00
43553;BME280;29153;42.696;23.218;2023-05-16T02:52:46;94072.80;;;11.24;100.00
43553;BME280;29153;42.696;23.218;2023-05-16T02:55:13;94067.20;;;11.26;100.00
43553;BME280;29153;42.696;23.218;2023-05-16T02:57:41;94069.05;;;11.25;100.00
43553;BME280;29153;42.696;23.218;2023-05-16T03:00:09;94069.62;;;11.25;100.00
43553;BME280;29153;42.696;23.218;2023-05-16T03:02:38;94066.97;;;11.25;100.00
43553;BME280;29153;42.696;23.218;2023-05-16T03:05:05;94062.14;;;11.27;100.00
43553;BME280;29153;42.696;23.218;2023-05-16T03:07:33;94066.38;;;11.28;100.00
43553;BME280;29153;42.696;23.218;2023-05-16T03:10:01;94064.80;;;11.27;100.00
43553;BME280;29153;42.696;23.218;2023-05-16T03:12:28;94064.85;;;11.24;100.00
43553;BME280;29153;42.696;23.218;2023-05-16T03:14:56;94062.22;;;11.22;100.00
43553;BME280;29153;42.696;23.218;2023-05-16T03:17:24;94061.41;;;11.24;100.00
43553;BME280;29153;42.696;23.218;2023-05-16T03:19:52;94064.59;;;11.23;100.00
43553;BME280;29153;42.696;23.218;2023-05-16T03:22:20;94066.20;;;11.22;100.00
43553;BME280;29153;42.696;23.218;2023-05-16T03:24:47;94066.98;;;11.22;100.00
43553;BME280;29153;42.696;23.218;2023-05-16T03:27:15;94066.66;;;11.26;100.00
43553;BME280;29153;42.696;23.218;2023-05-16T03:29:43;94065.92;;;11.23;100.00
43553;BME280;29153;42.696;23.218;2023-05-16T03:32:11;94070.64;;;11.26;100.00
43553;BME280;29153;42.696;23.218;2023-05-16T03:34:38;94065.06;;;11.28;100.00
43553;BME280;29153;42.696;23.218;2023-05-16T03:37:06;94062.87;;;11.32;100.00
43553;BME280;29153;42.696;23.218;2023-05-16T03:39:35;94062.20;;;11.24;100.00
43553;BME280;29153;42.696;23.218;2023-05-16T03:42:03;94060.95;;;11.35;100.00
43553;BME280;29153;42.696;23.218;2023-05-16T03:44:31;94060.95;;;11.35;100.00
43553;BME280;29153;42.696;23.218;2023-05-16T03:46:58;94055.45;;;11.32;100.00
43553;BME280;29153;42.696;23.218;2023-05-16T03:49:26;94055.93;;;11.34;100.00
43553;BME280;29153;42.696;23.218;2023-05-16T03:51:54;94066.19;;;11.40;100.00
43553;BME280;29153;42.696;23.218;2023-05-16T03:54:22;94061.14;;;11.41;100.00
43553;BME280;29153;42.696;23.218;2023-05-16T03:56:49;94059.48;;;11.46;100.00
43553;BME280;29153;42.696;23.218;2023-05-16T03:59:17;94063.46;;;11.46;100.00
43553;BME280;29153;42.696;23.218;2023-05-16T04:01:44;94063.99;;;11.45;100.00
43553;BME280;29153;42.696;23.218;2023-05-16T04:04:12;94064.02;;;11.42;100.00
43553;BME280;29153;42.696;23.218;2023-05-16T04:06:40;94015.74;;;11.11;100.00
43553;BME280;29153;42.696;23.218;2023-05-16T04:09:07;94062.39;;;11.47;100.00
43553;BME280;29153;42.696;23.218;2023-05-16T04:11:35;94069.22;;;11.50;100.00
43553;BME280;29153;42.696;23.218;2023-05-16T04:14:04;94068.77;;;11.46;100.00
43553;BME280;29153;42.696;23.218;2023-05-16T04:16:32;94059.43;;;11.48;100.00
43553;BME280;29153;42.696;23.218;2023-05-16T04:19:00;94059.43;;;11.48;100.00
43553;BME280;29153;42.696;23.218;2023-05-16T04:21:29;94063.61;;;11.52;100.00
43553;BME280;29153;42.696;23.218;2023-05-16T04:23:57;94050.06;;;11.53;100.00
43553;BME280;29153;42.696;23.218;2023-05-16T04:26:24;94057.18;;;11.55;100.00
43553;BME280;29153;42.696;23.218;2023-05-16T04:28:53;94056.63;;;11.58;100.00
43553;BME280;29153;42.696;23.218;2023-05-16T04:31:22;94071.36;;;11.64;100.00
43553;BME280;29153;42.696;23.218;2023-05-16T04:33:49;94074.02;;;11.64;100.00
43553;BME280;29153;42.696;23.218;2023-05-16T04:36:17;94061.69;;;11.73;100.00
43553;BME280;29153;42.696;23.218;2023-05-16T04:38:45;94056.89;;;11.75;100.00
43553;BME280;29153;42.696;23.218;2023-05-16T04:41:13;94059.30;;;11.74;100.00
43553;BME280;29153;42.696;23.218;2023-05-16T04:43:41;94055.71;;;11.81;100.00
43553;BME280;29153;42.696;23.218;2023-05-16T04:46:09;94048.26;;;11.83;100.00
43553;BME280;29153;42.696;23.218;2023-05-16T04:48:36;94058.00;;;11.88;100.00
43553;BME280;29153;42.696;23.218;2023-05-16T04:51:04;94056.92;;;11.89;100.00
43553;BME280;29153;42.696;23.218;2023-05-16T04:53:32;94056.87;;;11.92;100.00
43553;BME280;29153;42.696;23.218;2023-05-16T04:56:00;94057.27;;;11.99;100.00
43553;BME280;29153;42.696;23.218;2023-05-16T04:58:28;94056.45;;;12.01;100.00
43553;BME280;29153;42.696;23.218;2023-05-16T05:00:55;94057.44;;;12.05;100.00
43553;BME280;29153;42.696;23.218;2023-05-16T05:03:23;94049.66;;;12.08;100.00
43553;BME280;29153;42.696;23.218;2023-05-16T05:05:50;94056.36;;;12.06;100.00
43553;BME280;29153;42.696;23.218;2023-05-16T05:08:18;94049.03;;;12.14;100.00
43553;BME280;29153;42.696;23.218;2023-05-16T05:10:46;94056.41;;;12.17;100.00
43553;BME280;29153;42.696;23.218;2023-05-16T05:13:14;94057.73;;;12.17;100.00
43553;BME280;29153;42.696;23.218;2023-05-16T05:15:42;94055.23;;;12.23;100.00
43553;BME280;29153;42.696;23.218;2023-05-16T05:18:09;94053.85;;;12.25;100.00
43553;BME280;29153;42.696;23.218;2023-05-16T05:20:37;94053.80;;;12.28;100.00
43553;BME280;29153;42.696;23.218;2023-05-16T05:23:04;94026.59;;;12.20;100.00
43553;BME280;29153;42.696;23.218;2023-05-16T05:25:32;94043.14;;;12.30;100.00
43553;BME280;29153;42.696;23.218;2023-05-16T05:28:01;94045.89;;;12.39;100.00
43553;BME280;29153;42.696;23.218;2023-05-16T05:30:29;94038.52;;;12.36;100.00
43553;BME280;29153;42.696;23.218;2023-05-16T05:32:57;94038.52;;;12.36;100.00
43553;BME280;29153;42.696;23.218;2023-05-16T05:35:24;94033.84;;;12.44;100.00
43553;BME280;29153;42.696;23.218;2023-05-16T05:37:52;94033.49;;;12.48;100.00
43553;BME280;29153;42.696;23.218;2023-05-16T05:40:19;94033.49;;;12.48;100.00
43553;BME280;29153;42.696;23.218;2023-05-16T05:42:47;94026.31;;;12.49;100.00
43553;BME280;29153;42.696;23.218;2023-05-16T05:45:15;94022.77;;;12.53;100.00
43553;BME280;29153;42.696;23.218;2023-05-16T05:47:43;94016.41;;;12.52;100.00
43553;BME280;29153;42.696;23.218;2023-05-16T05:50:10;94019.22;;;12.58;100.00
43553;BME280;29153;42.696;23.218;2023-05-16T05:52:38;94029.50;;;12.62;100.00
43553;BME280;29153;42.696;23.218;2023-05-16T05:55:06;94021.65;;;12.68;100.00
43553;BME280;29153;42.696;23.218;2023-05-16T05:57:34;94027.15;;;12.71;100.00
43553;BME280;29153;42.696;23.218;2023-05-16T06:00:01;94024.57;;;12.80;100.00
43553;BME280;29153;42.696;23.218;2023-05-16T06:02:30;94027.41;;;12.84;100.00
43553;BME280;29153;42.696;23.218;2023-05-16T06:04:58;94030.32;;;12.85;100.00
43553;BME280;29153;42.696;23.218;2023-05-16T06:07:25;94029.59;;;12.82;100.00
43553;BME280;29153;42.696;23.218;2023-05-16T06:09:53;94033.23;;;12.86;100.00
43553;BME280;29153;42.696;23.218;2023-05-16T06:12:21;94027.27;;;12.91;100.00
43553;BME280;29153;42.696;23.218;2023-05-16T06:14:48;94025.22;;;12.99;100.00
43553;BME280;29153;42.696;23.218;2023-05-16T06:17:16;94016.46;;;13.10;100.00
43553;BME280;29153;42.696;23.218;2023-05-16T06:19:43;94013.47;;;13.14;100.00
43553;BME280;29153;42.696;23.218;2023-05-16T06:22:11;94024.75;;;13.22;100.00
43553;BME280;29153;42.696;23.218;2023-05-16T06:24:39;94022.19;;;13.28;100.00
43553;BME280;29153;42.696;23.218;2023-05-16T06:27:07;94022.33;;;13.34;100.00
43553;BME280;29153;42.696;23.218;2023-05-16T06:29:35;94019.83;;;13.49;100.00
43553;BME280;29153;42.696;23.218;2023-05-16T06:32:04;94017.95;;;13.49;100.00
43553;BME280;29153;42.696;23.218;2023-05-16T06:34:31;94021.91;;;13.52;100.00
43553;BME280;29153;42.696;23.218;2023-05-16T06:36:59;94017.55;;;13.56;100.00
43553;BME280;29153;42.696;23.218;2023-05-16T06:39:28;94024.09;;;13.69;100.00
43553;BME280;29153;42.696;23.218;2023-05-16T06:41:56;94018.61;;;13.77;100.00
43553;BME280;29153;42.696;23.218;2023-05-16T06:44:23;94004.68;;;13.80;100.00
43553;BME280;29153;42.696;23.218;2023-05-16T06:46:51;94004.68;;;13.80;100.00
43553;BME280;29153;42.696;23.218;2023-05-16T06:49:20;93996.62;;;13.83;100.00
43553;BME280;29153;42.696;23.218;2023-05-16T06:51:48;93996.48;;;13.88;100.00
43553;BME280;29153;42.696;23.218;2023-05-16T06:54:15;93992.06;;;13.94;100.00
43553;BME280;29153;42.696;23.218;2023-05-16T06:56:44;93982.38;;;13.98;100.00
43553;BME280;29153;42.696;23.218;2023-05-16T06:59:11;93974.88;;;14.09;100.00
43553;BME280;29153;42.696;23.218;2023-05-16T07:01:38;93916.78;;;13.91;100.00
43553;BME280;29153;42.696;23.218;2023-05-16T07:04:07;93965.06;;;14.27;100.00
43553;BME280;29153;42.696;23.218;2023-05-16T07:06:34;93962.31;;;14.29;100.00
43553;BME280;29153;42.696;23.218;2023-05-16T07:09:02;93959.36;;;14.31;100.00
43553;BME280;29153;42.696;23.218;2023-05-16T07:11:30;93963.27;;;14.44;100.00
43553;BME280;29153;42.696;23.218;2023-05-16T07:13:57;93961.86;;;14.55;100.00
43553;BME280;29153;42.696;23.218;2023-05-16T07:16:25;93964.79;;;14.74;100.00
43553;BME280;29153;42.696;23.218;2023-05-16T07:18:54;93960.80;;;14.82;100.00
43553;BME280;29153;42.696;23.218;2023-05-16T07:21:21;93960.80;;;14.82;100.00
43553;BME280;29153;42.696;23.218;2023-05-16T07:23:49;93964.66;;;14.96;100.00
43553;BME280;29153;42.696;23.218;2023-05-16T07:26:16;93958.22;;;15.14;100.00
43553;BME280;29153;42.696;23.218;2023-05-16T07:28:46;93961.62;;;15.32;100.00
43553;BME280;29153;42.696;23.218;2023-05-16T07:31:13;93980.86;;;15.48;100.00
43553;BME280;29153;42.696;23.218;2023-05-16T07:33:43;93980.86;;;15.48;100.00
43553;BME280;29153;42.696;23.218;2023-05-16T07:36:12;93981.64;;;15.58;100.00
43553;BME280;29153;42.696;23.218;2023-05-16T07:38:40;93981.23;;;15.62;100.00
43553;BME280;29153;42.696;23.218;2023-05-16T07:41:08;93981.55;;;15.69;100.00
43553;BME280;29153;42.696;23.218;2023-05-16T07:43:35;93991.56;;;15.80;100.00
43553;BME280;29153;42.696;23.218;2023-05-16T07:46:03;93959.85;;;15.70;98.78
43553;BME280;29153;42.696;23.218;2023-05-16T07:48:31;93984.67;;;16.03;99.74
43553;BME280;29153;42.696;23.218;2023-05-16T07:50:58;93977.58;;;16.07;98.11
43553;BME280;29153;42.696;23.218;2023-05-16T07:53:26;93982.58;;;16.17;98.02
43553;BME280;29153;42.696;23.218;2023-05-16T07:55:54;93982.75;;;16.26;93.83
43553;BME280;29153;42.696;23.218;2023-05-16T07:58:21;93979.25;;;16.34;94.69
43553;BME280;29153;42.696;23.218;2023-05-16T08:00:49;93969.72;;;16.39;94.93
43553;BME280;29153;42.696;23.218;2023-05-16T08:03:17;93972.67;;;16.32;91.41
43553;BME280;29153;42.696;23.218;2023-05-16T08:05:44;93965.54;;;16.30;91.10
43553;BME280;29153;42.696;23.218;2023-05-16T08:08:14;93960.09;;;16.32;89.39
43553;BME280;29153;42.696;23.218;2023-05-16T08:10:41;93943.59;;;16.45;89.56
43553;BME280;29153;42.696;23.218;2023-05-16T08:13:09;93954.70;;;16.56;89.58
43553;BME280;29153;42.696;23.218;2023-05-16T08:15:37;93953.84;;;16.58;89.66
43553;BME280;29153;42.696;23.218;2023-05-16T08:18:07;93942.98;;;16.69;89.06
43553;BME280;29153;42.696;23.218;2023-05-16T08:20:35;93938.47;;;16.75;89.78
43553;BME280;29153;42.696;23.218;2023-05-16T08:23:02;93930.62;;;16.91;90.76
43553;BME280;29153;42.696;23.218;2023-05-16T08:25:30;93932.86;;;16.89;90.35
43553;BME280;29153;42.696;23.218;2023-05-16T08:27:58;93941.31;;;17.12;89.90
43553;BME280;29153;42.696;23.218;2023-05-16T08:30:28;93937.30;;;17.39;88.40
43553;BME280;29153;42.696;23.218;2023-05-16T08:32:55;93945.16;;;17.50;85.11
43553;BME280;29153;42.696;23.218;2023-05-16T08:35:23;93940.42;;;17.61;85.87
43553;BME280;29153;42.696;23.218;2023-05-16T08:37:51;93940.02;;;17.51;83.78
43553;BME280;29153;42.696;23.218;2023-05-16T08:40:18;93940.25;;;17.52;83.43
43553;BME280;29153;42.696;23.218;2023-05-16T08:42:46;93940.51;;;17.59;82.90
43553;BME280;29153;42.696;23.218;2023-05-16T08:45:13;93936.34;;;17.55;83.73
43553;BME280;29153;42.696;23.218;2023-05-16T08:47:42;93941.15;;;17.50;84.20
43553;BME280;29153;42.696;23.218;2023-05-16T08:50:10;93954.77;;;17.57;82.04
43553;BME280;29153;42.696;23.218;2023-05-16T08:52:40;93946.19;;;17.57;81.67
43553;BME280;29153;42.696;23.218;2023-05-16T11:58:11;93922.95;;;18.25;94.03
43553;BME280;29153;42.696;23.218;2023-05-16T12:00:49;93916.27;;;18.31;95.38
43553;BME280;29153;42.696;23.218;2023-05-16T12:03:19;93902.62;;;18.48;96.21
43553;BME280;29153;42.696;23.218;2023-05-16T12:05:54;93900.04;;;18.70;89.17
43553;BME280;29153;42.696;23.218;2023-05-16T12:08:23;93894.27;;;18.89;86.25
43553;BME280;29153;42.696;23.218;2023-05-16T12:10:52;93892.92;;;18.95;81.28
43553;BME280;29153;42.696;23.218;2023-05-16T12:13:21;93876.89;;;19.27;83.44
43553;BME280;29153;42.696;23.218;2023-05-16T12:15:50;93885.60;;;19.58;80.32
43553;BME280;29153;42.696;23.218;2023-05-16T12:18:19;93890.48;;;19.46;79.39
43553;BME280;29153;42.696;23.218;2023-05-16T12:20:47;93900.34;;;19.42;79.32
43553;BME280;29153;42.696;23.218;2023-05-16T12:23:14;93903.19;;;19.27;78.02
43553;BME280;29153;42.696;23.218;2023-05-16T12:25:45;93897.36;;;19.59;78.83
43553;BME280;29153;42.696;23.218;2023-05-16T12:28:14;93902.58;;;19.68;76.68
43553;BME280;29153;42.696;23.218;2023-05-16T12:30:42;93901.44;;;19.47;76.49
43553;BME280;29153;42.696;23.218;2023-05-16T12:33:11;93880.96;;;19.64;78.42
43553;BME280;29153;42.696;23.218;2023-05-16T12:35:41;93886.81;;;19.60;78.88
43553;BME280;29153;42.696;23.218;2023-05-16T12:38:10;93893.98;;;19.62;79.24
43553;BME280;29153;42.696;23.218;2023-05-16T12:40:40;93892.19;;;19.60;78.55
43553;BME280;29153;42.696;23.218;2023-05-16T12:43:20;93900.20;;;19.50;80.38
43553;BME280;29153;42.696;23.218;2023-05-16T12:45:50;93904.20;;;19.29;83.88
43553;BME280;29153;42.696;23.218;2023-05-16T12:48:18;93895.36;;;19.28;87.68
43553;BME280;29153;42.696;23.218;2023-05-16T12:50:46;93896.20;;;19.17;87.99
43553;BME280;29153;42.696;23.218;2023-05-16T12:53:18;93894.69;;;18.97;89.23
43553;BME280;29153;42.696;23.218;2023-05-16T12:55:46;93894.83;;;18.89;90.36
43553;BME280;29153;42.696;23.218;2023-05-16T12:58:13;93894.67;;;18.70;91.68
43553;BME280;29153;42.696;23.218;2023-05-16T13:00:41;93903.28;;;18.63;93.04
43553;BME280;29153;42.696;23.218;2023-05-16T13:03:08;93902.63;;;18.54;94.22
43553;BME280;29153;42.696;23.218;2023-05-16T13:05:36;93903.83;;;18.50;95.38
43553;BME280;29153;42.696;23.218;2023-05-16T13:08:04;93910.33;;;18.37;95.00
43553;BME280;29153;42.696;23.218;2023-05-16T13:10:32;93903.41;;;18.30;93.63
43553;BME280;29153;42.696;23.218;2023-05-16T13:13:00;93899.28;;;18.20;93.53
43553;BME280;29153;42.696;23.218;2023-05-16T13:15:28;93891.13;;;18.17;95.04
43553;BME280;29153;42.696;23.218;2023-05-16T13:17:56;93881.84;;;18.14;96.90
43553;BME280;29153;42.696;23.218;2023-05-16T13:20:23;93879.06;;;18.17;98.01
43553;BME280;29153;42.696;23.218;2023-05-16T13:22:51;93878.27;;;18.10;98.95
43553;BME280;29153;42.696;23.218;2023-05-16T13:25:18;93884.64;;;18.06;96.65
43553;BME280;29153;42.696;23.218;2023-05-16T13:27:46;93884.66;;;18.00;96.22
43553;BME280;29153;42.696;23.218;2023-05-16T13:30:14;93888.77;;;17.97;97.91
43553;BME280;29153;42.696;23.218;2023-05-16T13:32:42;93895.48;;;17.91;99.09
43553;BME280;29153;42.696;23.218;2023-05-16T13:35:10;93892.78;;;17.85;100.00
43553;BME280;29153;42.696;23.218;2023-05-16T13:37:37;93895.91;;;17.81;100.00
43553;BME280;29153;42.696;23.218;2023-05-16T13:40:07;93886.86;;;17.73;100.00
43553;BME280;29153;42.696;23.218;2023-05-16T13:42:36;93889.31;;;17.72;100.00
43553;BME280;29153;42.696;23.218;2023-05-16T13:45:04;93892.70;;;17.55;100.00
43553;BME280;29153;42.696;23.218;2023-05-16T13:47:33;93889.84;;;17.60;100.00
43553;BME280;29153;42.696;23.218;2023-05-16T13:50:01;93895.62;;;17.56;100.00
43553;BME280;29153;42.696;23.218;2023-05-16T13:52:30;93900.74;;;17.55;100.00
43553;BME280;29153;42.696;23.218;2023-05-16T13:54:57;93904.64;;;17.51;100.00
43553;BME280;29153;42.696;23.218;2023-05-16T13:57:25;93913.23;;;17.51;100.00
43553;BME280;29153;42.696;23.218;2023-05-16T13:59:53;93920.69;;;17.39;100.00
43553;BME280;29153;42.696;23.218;2023-05-16T14:02:20;93933.52;;;17.40;100.00
43553;BME280;29153;42.696;23.218;2023-05-16T14:04:48;93939.07;;;17.35;100.00
43553;BME280;29153;42.696;23.218;2023-05-16T14:07:15;93940.81;;;17.24;100.00
43553;BME280;29153;42.696;23.218;2023-05-16T14:09:43;93939.47;;;17.24;100.00
43553;BME280;29153;42.696;23.218;2023-05-16T14:12:10;93941.70;;;17.22;100.00
43553;BME280;29153;42.696;23.218;2023-05-16T14:14:38;93952.85;;;17.24;100.00
43553;BME280;29153;42.696;23.218;2023-05-16T14:17:05;93940.56;;;17.17;100.00
43553;BME280;29153;42.696;23.218;2023-05-16T14:19:33;93934.30;;;17.13;100.00
43553;BME280;29153;42.696;23.218;2023-05-16T14:22:01;93928.98;;;17.19;100.00
43553;BME280;29153;42.696;23.218;2023-05-16T14:24:29;93929.20;;;17.20;100.00
43553;BME280;29153;42.696;23.218;2023-05-16T14:26:56;93931.43;;;17.18;100.00
43553;BME280;29153;42.696;23.218;2023-05-16T14:29:24;93929.86;;;17.17;100.00
43553;BME280;29153;42.696;23.218;2023-05-16T14:31:51;93930.57;;;17.26;100.00
43553;BME280;29153;42.696;23.218;2023-05-16T14:34:19;93922.77;;;17.27;100.00
43553;BME280;29153;42.696;23.218;2023-05-16T14:36:47;93929.27;;;17.39;100.00
43553;BME280;29153;42.696;23.218;2023-05-16T14:39:15;93910.22;;;17.13;100.00
43553;BME280;29153;42.696;23.218;2023-05-16T14:41:42;93938.84;;;17.34;100.00
43553;BME280;29153;42.696;23.218;2023-05-16T14:44:10;93942.81;;;17.21;100.00
43553;BME280;29153;42.696;23.218;2023-05-16T14:46:37;93942.30;;;17.07;100.00
43553;BME280;29153;42.696;23.218;2023-05-16T14:49:05;93946.78;;;17.09;100.00
43553;BME280;29153;42.696;23.218;2023-05-16T14:51:34;93944.05;;;16.97;100.00
43553;BME280;29153;42.696;23.218;2023-05-16T14:54:02;93950.38;;;16.93;100.00
43553;BME280;29153;42.696;23.218;2023-05-16T14:56:31;93952.69;;;16.67;100.00
43553;BME280;29153;42.696;23.218;2023-05-16T14:58:58;93952.69;;;16.67;100.00
43553;BME280;29153;42.696;23.218;2023-05-16T15:01:25;93955.13;;;16.66;100.00
43553;BME280;29153;42.696;23.218;2023-05-16T15:03:53;93963.94;;;16.67;100.00
43553;BME280;29153;42.696;23.218;2023-05-16T15:06:20;93961.44;;;16.62;100.00
43553;BME280;29153;42.696;23.218;2023-05-16T15:08:48;93960.91;;;16.54;100.00
43553;BME280;29153;42.696;23.218;2023-05-16T15:11:16;93955.55;;;16.62;100.00
43553;BME280;29153;42.696;23.218;2023-05-16T15:13:43;93957.85;;;16.58;100.00
43553;BME280;29153;42.696;23.218;2023-05-16T15:16:11;93963.12;;;16.52;100.00
43553;BME280;29153;42.696;23.218;2023-05-16T15:18:39;93965.40;;;16.56;100.00
43553;BME280;29153;42.696;23.218;2023-05-16T15:21:07;93968.60;;;16.64;100.00
43553;BME280;29153;42.696;23.218;2023-05-16T15:23:36;93965.71;;;16.69;100.00
43553;BME280;29153;42.696;23.218;2023-05-16T15:26:05;93954.47;;;16.69;100.00
43553;BME280;29153;42.696;23.218;2023-05-16T15:28:32;93941.75;;;16.66;100.00
43553;BME280;29153;42.696;23.218;2023-05-16T15:31:01;93943.22;;;16.70;100.00
43553;BME280;29153;42.696;23.218;2023-05-16T15:33:30;93938.71;;;16.62;100.00
43553;BME280;29153;42.696;23.218;2023-05-16T15:35:58;93936.19;;;16.57;100.00
43553;BME280;29153;42.696;23.218;2023-05-16T15:38:26;93936.19;;;16.57;100.00
43553;BME280;29153;42.696;23.218;2023-05-16T15:40:56;93936.06;;;16.53;100.00
43553;BME280;29153;42.696;23.218;2023-05-16T15:43:23;93931.45;;;16.48;100.00
43553;BME280;29153;42.696;23.218;2023-05-16T15:45:51;93940.13;;;16.45;100.00
43553;BME280;29153;42.696;23.218;2023-05-16T15:48:18;93939.45;;;16.42;100.00
43553;BME280;29153;42.696;23.218;2023-05-16T15:50:45;93941.83;;;16.34;100.00
43553;BME280;29153;42.696;23.218;2023-05-16T15:53:13;93920.41;;;16.14;100.00
43553;BME280;29153;42.696;23.218;2023-05-16T15:55:40;93922.70;;;16.09;100.00
43553;BME280;29153;42.696;23.218;2023-05-16T15:58:08;93906.95;;;16.02;100.00
43553;BME280;29153;42.696;23.218;2023-05-16T16:00:35;93874.67;;;15.86;100.00